• Join FlightAware (Why Join?)
  • Login
  • US Flag 
07:21AM EDT


 

Airport Tracker/Info


-or-


 

Live Flight TrackerFlight Track Log ✈ UPS105 ✈ 02-Jul-2013 ✈ RJBB / KIX - PANC

Flight Track Log - Related Links

Times and Time Zones

All times are in EDT time to prevent confusion due to time zone crossing. See the UPS105 flight status page for this flight to view local times or setup timezone preferences in your user account.

Time Position Orientation Groundspeed Altitude Reporting Facility
EDT Latitude Longitude Course Direction KTS MPH feet Rate Location/Type
09:27AM 34.3920 135.1830 234° Southwest 165 190 3,300  Level FlightAware
09:27AM 34.3770 135.1580 234° Southwest 196 226 3,800 1,200 Climbing FlightAware
09:28AM 34.3610 135.1300 235° Southwest 223 257 4,500 1,620 Climbing FlightAware
09:28AM 34.3550 135.1180 239° Southwest 224 258 4,900 1,680 Climbing FlightAware
09:29AM 34.3390 135.0910 234° Southwest 249 287 5,500 1,560 Climbing FlightAware
09:29AM 34.3250 135.0670 235° Southwest 264 304 6,100 2,220 Climbing FlightAware
09:29AM 34.3090 135.0440 230° Southwest 268 308 7,000 2,520 Climbing FlightAware
09:30AM 34.2890 135.0200 225° Southwest 273 314 8,000 2,400 Climbing FlightAware
09:30AM 34.2720 135.0110 204° Southwest 284 327 8,600 2,400 Climbing FlightAware
09:30AM 34.2280 135.0180 173° South 297 342 9,800 1,860 Climbing FlightAware
09:31AM 34.1730 135.0350 166° South 329 379 10,800 1,320 Climbing FlightAware
09:32AM 34.1180 135.0510 166° South 360 414 11,500 1,260 Climbing FlightAware
09:32AM 34.0400 135.0720 167° South 394 453 12,500 1,260 Climbing FlightAware
09:33AM 33.9700 135.0900 168° South 423 487 13,300 1,500 Climbing FlightAware
09:34AM 33.9110 135.1160 160° South 438 504 14,300 1,860 Climbing FlightAware
09:34AM 33.8540 135.1910 132° Southeast 454 522 15,600 1,980 Climbing FlightAware
09:35AM 33.8010 135.2690 129° Southeast 458 527 17,000 1,980 Climbing FlightAware
09:36AM 33.7400 135.3600 129° Southeast 469 540 18,400 1,860 Climbing FlightAware
09:36AM 33.6810 135.4490 129° Southeast 474 545 19,800 1,920 Climbing FlightAware
09:37AM 33.6200 135.5410 129° Southeast 477 549 21,300 1,620 Climbing FlightAware
09:38AM 33.5610 135.6270 129° Southeast 486 559 22,200 1,260 Climbing FlightAware
09:38AM 33.5110 135.7020 129° Southeast 496 571 22,900 1,200 Climbing FlightAware
09:39AM 33.4660 135.7950 120° Southeast 507 583 23,700 1,200 Climbing FlightAware
09:39AM 33.4610 135.8390 98° East 507 583 24,000 1,500 Climbing FlightAware
09:40AM 33.4800 135.9600 79° East 502 578 25,200 1,440 Climbing FlightAware
09:41AM 33.5110 136.1210 77° East 501 577 26,600 1,380 Climbing FlightAware
09:42AM 33.5310 136.2190 76° East 504 580 27,400 1,260 Climbing FlightAware
09:42AM 33.5530 136.3300 77° East 501 577 28,300 1,320 Climbing FlightAware
09:43AM 33.5740 136.4420 77° East 496 571 29,300 1,260 Climbing FlightAware
09:44AM 33.5950 136.5490 77° East 496 571 30,000 1,200 Climbing FlightAware
09:44AM 33.6150 136.6550 77° East 489 563 30,900 1,200 Climbing FlightAware
09:45AM 33.6360 136.7700 78° East 483 556 31,700 1,200 Climbing FlightAware
09:46AM 33.6530 136.8600 77° East 476 548 32,500 1,200 Climbing FlightAware
09:46AM 33.6670 136.9350 77° East 470 541 33,000 360 Climbing FlightAware
09:47AM 33.6920 137.0670 77° East 470 541 33,000  Level FlightAware
09:48AM 33.7110 137.1700 77° East 471 542 33,000  Level FlightAware
09:48AM 33.7300 137.2730 77° East 471 542 33,000  Level FlightAware
09:49AM 33.7490 137.3760 77° East 475 547 33,000  Level FlightAware
09:50AM 33.7680 137.4790 77° East 476 548 33,000  Level FlightAware
09:50AM 33.7870 137.5830 78° East 476 548 33,000  Level FlightAware
09:51AM 33.8050 137.6850 78° East 477 549 33,000  Level FlightAware
09:52AM 33.8240 137.7880 77° East 478 550 33,000  Level FlightAware
09:52AM 33.8430 137.8930 78° East 478 550 33,000  Level FlightAware
09:53AM 33.8610 137.9970 78° East 477 549 33,000  Level FlightAware
09:54AM 33.8800 138.1010 78° East 477 549 33,000  Level FlightAware
09:54AM 33.9010 138.2160 78° East 476 548 33,000  Level FlightAware
09:55AM 33.9260 138.3160 73° East 468 539 33,000  Level FlightAware
09:56AM 33.9730 138.4190 61° Northeast 459 528 33,000  Level FlightAware
09:56AM 34.0120 138.4990 60° Northeast 459 528 33,000  Level FlightAware
09:57AM 34.0560 138.5880 59° Northeast 459 528 33,000  Level FlightAware
09:58AM 34.1150 138.7090 59° Northeast 459 528 33,000  Level FlightAware
09:59AM 34.1580 138.7970 59° Northeast 459 528 33,000  Level FlightAware
09:59AM 34.2040 138.8900 59° Northeast 458 527 33,000  Level FlightAware
10:00AM 34.2580 139.0020 60° Northeast 458 527 33,000  Level FlightAware
10:01AM 34.3070 139.1020 59° Northeast 458 527 33,000  Level FlightAware
10:02AM 34.3500 139.1900 59° Northeast 458 527 33,000  Level FlightAware
10:02AM 34.3980 139.2900 60° Northeast 458 527 33,000  Level FlightAware
10:03AM 34.4410 139.3810 60° Northeast 458 527 33,000  Level FlightAware
10:04AM 34.4790 139.4600 60° Northeast 458 527 33,000  Level FlightAware
10:04AM 34.5220 139.5480 59° Northeast 458 527 33,000  Level FlightAware
10:05AM 34.5690 139.6490 61° Northeast 460 529 33,000  Level FlightAware
10:06AM 34.6120 139.7390 60° Northeast 460 529 33,000  Level FlightAware
10:06AM 34.6550 139.8290 60° Northeast 461 531 33,000  Level FlightAware
10:07AM 34.7030 139.9290 60° Northeast 458 527 33,000  Level FlightAware
10:08AM 34.7460 140.0210 60° Northeast 462 532 33,000  Level FlightAware
10:08AM 34.7820 140.0980 60° Northeast 463 533 33,000  Level FlightAware
10:09AM 34.8300 140.2000 60° Northeast 463 533 33,000  Level FlightAware
10:10AM 34.8730 140.2920 60° Northeast 461 531 33,000  Level FlightAware
10:10AM 34.9100 140.3710 60° Northeast 460 529 33,000  Level FlightAware
10:11AM 34.9600 140.4760 60° Northeast 457 526 33,000  Level FlightAware
10:12AM 35.0020 140.5670 61° Northeast 454 522 33,000  Level FlightAware
10:13AM 35.0450 140.6600 61° Northeast 450 518 33,000  Level FlightAware
10:13AM 35.0830 140.7420 60° Northeast 446 513 33,000  Level FlightAware
10:14AM 35.1290 140.8420 61° Northeast 441 507 33,000  Level FlightAware
10:15AM 35.1720 140.9370 61° Northeast 436 502 33,000  Level FlightAware
10:15AM 35.2020 141.0020 61° Northeast 432 497 33,000  Level FlightAware
10:16AM 35.2450 141.0960 61° Northeast 428 493 33,000  Level FlightAware
10:17AM 35.2850 141.1830 61° Northeast 425 489 33,000  Level FlightAware
10:17AM 35.3190 141.2580 61° Northeast 424 488 33,000  Level FlightAware
10:18AM 35.3600 141.3480 61° Northeast 422 486 33,000  Level FlightAware
10:19AM 35.4000 141.4350 61° Northeast 422 486 33,000  Level FlightAware
10:19AM 35.4320 141.5060 61° Northeast 422 486 33,000  Level FlightAware
10:20AM 35.4990 141.6550 61° Northeast 421 484 33,000  Level FlightAware
10:21AM 35.5350 141.7360 61° Northeast 423 487 33,000  Level FlightAware
10:22AM 35.5920 141.8630 61° Northeast 424 488 33,000  Level FlightAware
10:23AM 35.6300 141.9480 61° Northeast 424 488 33,000  Level FlightAware
10:24AM 35.6850 142.0700 61° Northeast 428 493 33,000  Level FlightAware
10:24AM 35.7250 142.1620 62° Northeast 424 488 33,000  Level FlightAware
10:25AM 35.7630 142.2470 61° Northeast 425 489 33,000  Level FlightAware
10:26AM 35.7990 142.3300 62° Northeast 425 489 33,000  Level FlightAware
10:26AM 35.8400 142.4220 61° Northeast 430 495 33,000  Level FlightAware
10:27AM 35.8860 142.5270 62° Northeast 430 495 33,000  Level FlightAware
10:28AM 35.9140 142.5920 62° Northeast 426 490 33,000  Level FlightAware
10:29AM 35.9630 142.7030 61° Northeast 426 490 33,000  Level FlightAware
10:30AM 36.0270 142.8500 62° Northeast 428 493 33,000  Level FlightAware
10:30AM 36.0630 142.9330 62° Northeast 429 494 33,000  Level FlightAware
10:31AM 36.1050 143.0340 63° Northeast 431 496 33,000  Level FlightAware
10:32AM 36.1430 143.1190 61° Northeast 433 498 33,000  Level FlightAware
10:33AM 36.1860 143.2200 62° Northeast 434 499 33,000  Level FlightAware
10:33AM 36.2200 143.3010 62° Northeast 434 499 33,000  Level FlightAware
10:34AM 36.2580 143.3900 62° Northeast 436 502 33,000  Level FlightAware
10:35AM 36.2940 143.4770 63° Northeast 436 502 33,000  Level FlightAware
10:35AM 36.3240 143.5490 63° Northeast 436 502 33,000  Level FlightAware
10:36AM 36.3610 143.6400 63° Northeast 436 502 33,000  Level FlightAware
10:37AM 36.3900 143.7100 63° Northeast 436 502 33,000  Level FlightAware
10:38AM 36.4360 143.8240 63° Northeast 436 502 33,000  Level FlightAware
10:38AM 36.4640 143.8920 63° Northeast 436 502 33,000  Level FlightAware
10:39AM 36.4920 143.9590 63° Northeast 436 502 33,000  Level FlightAware
10:40AM 36.5290 144.0500 63° Northeast 436 502 33,000  Level FlightAware
10:41AM 36.5680 144.1450 63° Northeast 436 502 33,000  Level FlightAware
10:41AM 36.5970 144.2160 63° Northeast 436 502 33,000  Level FlightAware
10:42AM 36.6330 144.3030 63° Northeast 436 502 33,000  Level FlightAware
10:43AM 36.6610 144.3740 64° Northeast 436 502 33,000  Level FlightAware
10:45AM 36.8687 144.5694 37° Northeast  Level Estimated
10:46AM 36.9724 144.6674 37° Northeast  Level Estimated
10:47AM 37.0760 144.7658 37° Northeast  Level Estimated
10:48AM 37.1796 144.8644 37° Northeast  Level Estimated
10:49AM 37.2830 144.9633 37° Northeast  Level Estimated
10:50AM 37.3864 145.0625 37° Northeast  Level Estimated
10:51AM 37.4897 145.1619 37° Northeast  Level Estimated
10:52AM 37.5929 145.2616 37° Northeast  Level Estimated
10:53AM 37.6960 145.3616 37° Northeast  Level Estimated
10:54AM 37.7991 145.4618 38° Northeast  Level Estimated
10:55AM 37.9021 145.5624 38° Northeast  Level Estimated
10:56AM 38.0049 145.6632 38° Northeast  Level Estimated
10:57AM 38.1077 145.7643 38° Northeast  Level Estimated
10:58AM 38.2104 145.8657 38° Northeast  Level Estimated
10:59AM 38.3131 145.9674 38° Northeast  Level Estimated
11:00AM 38.4156 146.0694 38° Northeast  Level Estimated
11:01AM 38.5180 146.1716 38° Northeast  Level Estimated
11:02AM 38.6204 146.2742 38° Northeast  Level Estimated
11:03AM 38.7226 146.3770 38° Northeast  Level Estimated
11:04AM 38.8248 146.4801 38° Northeast  Level Estimated
11:05AM 38.9269 146.5836 38° Northeast  Level Estimated
11:06AM 39.0289 146.6873 38° Northeast  Level Estimated
11:07AM 39.1308 146.7913 38° Northeast  Level Estimated
11:08AM 39.2326 146.8957 38° Northeast  Level Estimated
11:09AM 39.3343 147.0003 38° Northeast  Level Estimated
11:10AM 39.4359 147.1052 39° Northeast  Level Estimated
11:11AM 39.5374 147.2105 39° Northeast  Level Estimated
11:12AM 39.6389 147.3160 39° Northeast  Level Estimated
11:13AM 39.7402 147.4219 39° Northeast  Level Estimated
11:14AM 39.8414 147.5281 39° Northeast  Level Estimated
11:15AM 39.9426 147.6346 39° Northeast  Level Estimated
11:16AM 40.0436 147.7413 39° Northeast  Level Estimated
11:17AM 40.1446 147.8485 39° Northeast  Level Estimated
11:18AM 40.2454 147.9559 39° Northeast  Level Estimated
11:19AM 40.3461 148.0637 39° Northeast  Level Estimated
11:20AM 40.4468 148.1718 39° Northeast  Level Estimated
11:21AM 40.5473 148.2802 39° Northeast  Level Estimated
11:22AM 40.6478 148.3889 39° Northeast  Level Estimated
11:23AM 40.7481 148.4980 39° Northeast  Level Estimated
11:24AM 40.8483 148.6073 40° Northeast  Level Estimated
11:25AM 40.9485 148.7171 40° Northeast  Level Estimated
11:26AM 41.0485 148.8271 40° Northeast  Level Estimated
11:27AM 41.1484 148.9375 40° Northeast  Level Estimated
11:28AM 41.2482 149.0482 40° Northeast  Level Estimated
11:29AM 41.3479 149.1593 40° Northeast  Level Estimated
11:30AM 41.4475 149.2707 40° Northeast  Level Estimated
11:31AM 41.5470 149.3824 40° Northeast  Level Estimated
11:32AM 41.6464 149.4945 40° Northeast  Level Estimated
11:33AM 41.7457 149.6070 40° Northeast  Level Estimated
11:34AM 41.8449 149.7197 40° Northeast  Level Estimated
11:35AM 41.9439 149.8329 40° Northeast  Level Estimated
11:36AM 42.0429 149.9464 40° Northeast  Level Estimated
11:37AM 42.1417 150.0602 40° Northeast  Level Estimated
11:38AM 42.2404 150.1744 41° Northeast  Level Estimated
11:39AM 42.3391 150.2890 41° Northeast  Level Estimated
11:40AM 42.4375 150.4039 41° Northeast  Level Estimated
11:41AM 42.5359 150.5191 41° Northeast  Level Estimated
11:42AM 42.6342 150.6348 41° Northeast  Level Estimated
11:43AM 42.7323 150.7508 41° Northeast  Level Estimated
11:44AM 42.8303 150.8671 41° Northeast  Level Estimated
11:45AM 42.9283 150.9839 41° Northeast  Level Estimated
11:46AM 43.0261 151.1010 41° Northeast  Level Estimated
11:47AM 43.1237 151.2185 41° Northeast  Level Estimated
11:48AM 43.2213 151.3363 41° Northeast  Level Estimated
11:49AM 43.3187 151.4546 41° Northeast  Level Estimated
11:50AM 43.4160 151.5732 42° Northeast  Level Estimated
11:51AM 43.5132 151.6922 42° Northeast  Level Estimated
11:52AM 43.6102 151.8116 42° Northeast  Level Estimated
11:53AM 43.7072 151.9314 42° Northeast  Level Estimated
11:54AM 43.8040 152.0515 42° Northeast  Level Estimated
11:55AM 43.9007 152.1721 42° Northeast  Level Estimated
11:56AM 43.9972 152.2930 42° Northeast  Level Estimated
11:57AM 44.0937 152.4143 42° Northeast  Level Estimated
11:58AM 44.1900 152.5361 42° Northeast  Level Estimated
11:59AM 44.2861 152.6582 42° Northeast  Level Estimated
12:00PM 44.3822 152.7807 42° Northeast  Level Estimated
12:01PM 44.4781 152.9037 42° Northeast  Level Estimated
12:02PM 44.5739 153.0270 43° Northeast  Level Estimated
12:03PM 44.6695 153.1507 43° Northeast  Level Estimated
12:04PM 44.7650 153.2749 43° Northeast  Level Estimated
12:05PM 44.8604 153.3994 43° Northeast  Level Estimated
12:06PM 44.9556 153.5244 43° Northeast  Level Estimated
12:07PM 45.0507 153.6498 43° Northeast  Level Estimated
12:08PM 45.1457 153.7756 43° Northeast  Level Estimated
12:09PM 45.2405 153.9018 43° Northeast  Level Estimated
12:10PM 45.3352 154.0285 43° Northeast  Level Estimated
12:11PM 45.4297 154.1555 43° Northeast  Level Estimated
12:12PM 45.5241 154.2831 43° Northeast  Level Estimated
12:13PM 45.6184 154.4110 43° Northeast  Level Estimated
12:14PM 45.7125 154.5393 44° Northeast  Level Estimated
12:15PM 45.8065 154.6681 44° Northeast  Level Estimated
12:16PM 45.9003 154.7973 44° Northeast  Level Estimated
12:17PM 45.9940 154.9270 44° Northeast  Level Estimated
12:18PM 46.0875 155.0571 44° Northeast  Level Estimated
12:19PM 46.1809 155.1877 44° Northeast  Level Estimated
12:20PM 46.2741 155.3186 44° Northeast  Level Estimated
12:21PM 46.3672 155.4501 44° Northeast  Level Estimated
12:22PM 46.4602 155.5820 44° Northeast  Level Estimated
12:23PM 46.5530 155.7143 44° Northeast  Level Estimated
12:24PM 46.6456 155.8471 45° Northeast  Level Estimated
12:25PM 46.7381 155.9803 45° Northeast  Level Estimated
12:26PM 46.8304 156.1140 45° Northeast  Level Estimated
12:27PM 46.9226 156.2482 45° Northeast  Level Estimated
12:28PM 47.0146 156.3828 45° Northeast  Level Estimated
12:29PM 47.1064 156.5179 45° Northeast  Level Estimated
12:30PM 47.1981 156.6534 45° Northeast  Level Estimated
12:31PM 47.2896 156.7894 45° Northeast  Level Estimated
12:32PM 47.3810 156.9259 45° Northeast  Level Estimated
12:33PM 47.4722 157.0629 45° Northeast  Level Estimated
12:34PM 47.5633 157.2003 46° Northeast  Level Estimated
12:35PM 47.6541 157.3382 46° Northeast  Level Estimated
12:36PM 47.7448 157.4766 46° Northeast  Level Estimated
12:37PM 47.8354 157.6155 46° Northeast  Level Estimated
12:38PM 47.9258 157.7549 46° Northeast  Level Estimated
12:39PM 48.0160 157.8947 46° Northeast  Level Estimated
12:40PM 48.1060 158.0351 46° Northeast  Level Estimated
12:41PM 48.1959 158.1759 46° Northeast  Level Estimated
12:42PM 48.2856 158.3172 46° Northeast  Level Estimated
12:43PM 48.3751 158.4591 46° Northeast  Level Estimated
12:44PM 48.4644 158.6014 47° Northeast  Level Estimated
12:45PM 48.5536 158.7442 47° Northeast  Level Estimated
12:45PM 47.5500 161.3333 53° Northeast 508 585 33,000  Level Anchorage Center
12:46PM 48.6426 158.8875 47° Northeast  Level Estimated
12:47PM 48.7314 159.0314 47° Northeast  Level Estimated
12:48PM 48.8200 159.1757 47° Northeast  Level Estimated
12:49PM 48.9085 159.3206 47° Northeast  Level Estimated
12:50PM 48.9968 159.4659 47° Northeast  Level Estimated
12:51PM 48.0588 162.3481 54° Northeast 508 585 33,000  Level FlightAware Transoceanic
12:51PM 48.0667 162.4167 54° Northeast 503 579 33,000  Level Anchorage Center
12:52PM 48.1427 162.5191 54° Northeast 508 585 33,000  Level FlightAware Transoceanic
12:53PM 48.2264 162.6907 54° Northeast 508 585 33,000  Level FlightAware Transoceanic
12:54PM 48.3098 162.8629 54° Northeast 508 585 33,000  Level FlightAware Transoceanic
12:55PM 48.3930 163.0356 54° Northeast 508 585 33,000  Level FlightAware Transoceanic
12:56PM 48.4759 163.2090 54° Northeast 508 585 33,000  Level FlightAware Transoceanic
12:57PM 48.5650 163.4456 54° Northeast 503 579 33,000  Level FlightAware Transoceanic
12:58PM 48.6472 163.6190 54° Northeast 503 579 33,000  Level FlightAware Transoceanic
12:59PM 48.7291 163.7930 55° Northeast 503 579 33,000  Level FlightAware Transoceanic
01:00PM 48.8107 163.9676 55° Northeast 503 579 33,000  Level FlightAware Transoceanic
01:01PM 48.8921 164.1428 55° Northeast 503 579 33,000  Level FlightAware Transoceanic
01:01PM 48.8000 164.0667 54° Northeast 500 575 33,000  Level Anchorage Center
01:02PM 48.9732 164.3185 55° Northeast 503 579 33,000  Level FlightAware Transoceanic
01:03PM 49.0541 164.4948 55° Northeast 503 579 33,000  Level FlightAware Transoceanic
01:04PM 49.1346 164.6716 55° Northeast 503 579 33,000  Level FlightAware Transoceanic
01:05PM 49.2149 164.8491 55° Northeast 503 579 33,000  Level FlightAware Transoceanic
01:06PM 49.2950 165.0271 56° Northeast 503 579 33,000  Level FlightAware Transoceanic
01:07PM 49.2757 165.0960 55° Northeast 500 575 33,000  Level FlightAware Transoceanic
01:08PM 49.3541 165.2695 55° Northeast 500 575 33,000  Level FlightAware Transoceanic
01:09PM 49.4322 165.4435 55° Northeast 500 575 33,000  Level FlightAware Transoceanic
01:10PM 49.5101 165.6181 56° Northeast 500 575 33,000  Level FlightAware Transoceanic
01:10PM 49.5167 165.7667 55° Northeast 498 573 33,000  Level Anchorage Center
01:11PM 49.5877 165.7932 56° Northeast 500 575 33,000  Level FlightAware Transoceanic
01:12PM 49.6651 165.9689 56° Northeast 500 575 33,000  Level FlightAware Transoceanic
01:13PM 49.7421 166.1452 56° Northeast 500 575 33,000  Level FlightAware Transoceanic
01:13PM 49.7000 166.2167 55° Northeast 501 577 33,000  Level Anchorage Center
01:14PM 49.8189 166.3220 56° Northeast 500 575 33,000  Level FlightAware Transoceanic
01:15PM 49.8955 166.4993 56° Northeast 500 575 33,000  Level FlightAware Transoceanic
01:16PM 49.9717 166.6773 56° Northeast 500 575 33,000  Level FlightAware Transoceanic
01:17PM 49.9866 166.8313 56° Northeast 498 573 33,000  Level FlightAware Transoceanic
01:18PM 50.0639 167.0108 56° Northeast 498 573 33,000  Level FlightAware Transoceanic
01:19PM 50.1733 167.3017 56° Northeast 501 577 33,000  Level FlightAware Transoceanic
01:20PM 50.2512 167.4846 56° Northeast 501 577 33,000  Level FlightAware Transoceanic
01:20PM 50.2000 167.5167 56° Northeast 500 575 33,000  Level Anchorage Center
01:21PM 50.3288 167.6681 57° Northeast 501 577 33,000  Level FlightAware Transoceanic
01:22PM 50.4062 167.8522 57° Northeast 501 577 33,000  Level FlightAware Transoceanic
01:23PM 50.4832 168.0369 57° Northeast 501 577 33,000  Level FlightAware Transoceanic
01:24PM 50.5599 168.2222 57° Northeast 501 577 33,000  Level FlightAware Transoceanic
01:25PM 50.6364 168.4081 57° Northeast 501 577 33,000  Level FlightAware Transoceanic
01:26PM 50.6568 168.5885 57° Northeast 500 575 33,000  Level FlightAware Transoceanic
01:27PM 50.7319 168.7692 57° Northeast 500 575 33,000  Level FlightAware Transoceanic
01:28PM 50.8068 168.9504 57° Northeast 500 575 33,000  Level FlightAware Transoceanic
01:28PM 50.7833 169.1000 58° Northeast 510 587 33,000  Level Anchorage Center
01:29PM 50.8814 169.1322 57° Northeast 500 575 33,000  Level FlightAware Transoceanic
01:29PM 50.8500 169.2667 58° Northeast 510 587 33,000  Level Anchorage Center
01:30PM 50.9557 169.3146 57° Northeast 500 575 33,000  Level FlightAware Transoceanic
01:30PM 50.9167 169.4833 64° Northeast 500 575 33,000  Level Anchorage Center
01:31PM 51.0298 169.4976 57° Northeast 500 575 33,000  Level FlightAware Transoceanic
01:31PM 50.9833 169.6500 58° Northeast 510 587 33,000  Level Anchorage Center
01:32PM 51.1035 169.6812 57° Northeast 500 575 33,000  Level FlightAware Transoceanic
01:32PM 51.0500 169.8500 62° Northeast 510 587 33,000  Level Anchorage Center
01:33PM 51.1770 169.8653 58° Northeast 500 575 33,000  Level FlightAware Transoceanic
01:33PM 51.1333 170.0667 58° Northeast 520 598 33,000  Level Anchorage Center
01:34PM 51.2501 170.0500 58° Northeast 500 575 33,000  Level FlightAware Transoceanic
01:34PM 51.1833 170.2500 66° East 520 598 33,000  Level Anchorage Center
01:35PM 51.2667 170.4500 56° Northeast 510 587 33,000  Level Anchorage Center
01:36PM 51.3167 170.6333 66° East 520 598 33,000  Level Anchorage Center
01:37PM 51.4000 170.8500 58° Northeast 510 587 33,000  Level Anchorage Center
01:38PM 51.4500 171.0333 66° East 520 598 33,000  Level Anchorage Center
01:39PM 51.5333 171.2500 58° Northeast 520 598 33,000  Level Anchorage Center
01:40PM 51.6000 171.4000 54° Northeast 520 598 33,000  Level Anchorage Center
01:41PM 51.7000 171.6167 53° Northeast 520 598 33,000  Level Anchorage Center
01:42PM 51.7833 171.8167 56° Northeast 510 587 33,000  Level Anchorage Center
01:43PM 51.8500 171.9833 57° Northeast 520 598 33,000  Level Anchorage Center
01:44PM 51.9500 172.1833 51° Northeast 520 598 33,000  Level Anchorage Center
01:45PM 52.0167 172.3667 59° Northeast 530 610 33,000  Level Anchorage Center
01:46PM 52.1167 172.5667 51° Northeast 520 598 33,000  Level Anchorage Center
01:47PM 52.1833 172.7500 59° Northeast 520 598 33,000  Level Anchorage Center
01:48PM 52.2667 172.9667 58° Northeast 530 610 33,000  Level Anchorage Center
01:50PM 52.3517 173.1678 55° Northeast  Level FlightAware Approximate
01:50PM 52.4333 173.3500 55° Northeast 530 610 33,000  Level Anchorage Center
01:51PM 52.5167 173.5667 58° Northeast 530 610 33,000  Level Anchorage Center
01:52PM 52.6000 173.7500 53° Northeast 530 610 33,000  Level Anchorage Center
01:53PM 52.6667 173.9333 59° Northeast 530 610 33,000  Level Anchorage Center
01:55PM 52.7485 174.1333 58° Northeast  Level FlightAware Approximate
01:56PM 52.9167 174.5833 58° Northeast 540 621 33,000  Level Anchorage Center
01:57PM 52.9833 174.7667 59° Northeast 540 621 33,000  Level Anchorage Center
01:58PM 53.0833 175.0000 54° Northeast 540 621 33,000  Level Anchorage Center
01:59PM 53.1667 175.2333 59° Northeast 540 621 33,000  Level Anchorage Center
02:00PM 53.2333 175.4333 61° Northeast 540 621 33,000  Level Anchorage Center
02:01PM 53.3167 175.6667 59° Northeast 540 621 33,000  Level Anchorage Center
02:02PM 53.2239 175.4089 58° Northeast  Level FlightAware Approximate
02:02PM 53.3833 175.8500 59° Northeast 550 633 33,000  Level Anchorage Center
02:03PM 53.4667 176.0833 59° Northeast 540 621 33,000  Level Anchorage Center
02:04PM 53.5333 176.2667 58° Northeast 540 621 33,000  Level Anchorage Center
02:05PM 53.6167 176.5167 61° Northeast 550 633 33,000  Level Anchorage Center
02:06PM 53.6833 176.7167 61° Northeast 540 621 33,000  Level Anchorage Center
02:07PM 53.7667 176.9500 59° Northeast 550 633 33,000  Level Anchorage Center
02:08PM 53.8500 177.1833 59° Northeast 540 621 33,000  Level Anchorage Center
02:09PM 53.9167 177.3833 60° Northeast 540 621 33,000  Level Anchorage Center
02:10PM 54.0000 177.6333 60° Northeast 540 621 33,000  Level Anchorage Center
02:11PM 54.0667 177.8333 60° Northeast 540 621 33,000  Level Anchorage Center
02:12PM 54.1500 178.0667 59° Northeast 540 621 33,000  Level Anchorage Center
02:13PM 54.2167 178.2667 60° Northeast 540 621 33,000  Level Anchorage Center
02:14PM 54.2833 178.5167 65° Northeast 540 621 33,000  Level Anchorage Center
02:15PM 54.3500 178.7167 60° Northeast 530 610 33,000  Level Anchorage Center
02:17PM 54.5167 179.2167 62° Northeast 541 623 33,000  Level Anchorage Center
02:24PM 54.9098 -179.4894 63° Northeast 541 623 33,000  Level FlightAware Transoceanic
02:25PM 54.9740 -179.2713 63° Northeast 541 623 33,000  Level FlightAware Transoceanic
02:26PM 55.0378 -179.0525 63° Northeast 541 623 33,000  Level FlightAware Transoceanic
02:27PM 55.1012 -178.8330 63° Northeast 541 623 33,000  Level FlightAware Transoceanic
02:27PM 55.1667 -178.6167 64° Northeast 510 587 33,000  Level Anchorage Center
02:27PM 55.2000 -178.5333 64° Northeast 514 592 33,000  Level Anchorage Center
02:28PM 55.1642 -178.6128 64° Northeast 541 623 33,000  Level FlightAware Transoceanic
02:29PM 55.2268 -178.3919 64° Northeast 541 623 33,000  Level FlightAware Transoceanic
02:30PM 55.2890 -178.1703 64° Northeast 541 623 33,000  Level FlightAware Transoceanic
02:31PM 55.3508 -177.9481 64° Northeast 541 623 33,000  Level FlightAware Transoceanic
02:32PM 55.4122 -177.7251 64° Northeast 541 623 33,000  Level FlightAware Transoceanic
02:33PM 55.5260 -177.3168 65° Northeast 510 587 33,000  Level FlightAware Transoceanic
02:34PM 55.5629 -177.2093 65° Northeast 514 592 33,000  Level FlightAware Transoceanic
02:35PM 55.6219 -176.9863 65° Northeast 514 592 33,000  Level FlightAware Transoceanic
02:36PM 55.6806 -176.7625 65° Northeast 514 592 33,000  Level FlightAware Transoceanic
02:36PM 55.7333 -176.5000 66° East 490 564 33,000  Level Anchorage Center
02:37PM 55.7388 -176.5382 65° Northeast 514 592 33,000  Level FlightAware Transoceanic
02:37PM 55.7833 -176.2833 68° East 500 575 33,000  Level Anchorage Center
02:38PM 55.7967 -176.3131 66° East 514 592 33,000  Level FlightAware Transoceanic
02:38PM 55.8500 -176.0667 61° Northeast 490 564 33,000  Level Anchorage Center
02:39PM 55.8541 -176.0874 66° East 514 592 33,000  Level FlightAware Transoceanic
02:39PM 55.9000 -175.8333 69° East 490 564 33,000  Level Anchorage Center
02:40PM 55.9112 -175.8611 66° East 514 592 33,000  Level FlightAware Transoceanic
02:40PM 55.9667 -175.6167 61° Northeast 490 564 33,000  Level Anchorage Center
02:41PM 55.9678 -175.6340 66° East 514 592 33,000  Level FlightAware Transoceanic
02:41PM 56.0167 -175.3833 69° East 490 564 33,000  Level Anchorage Center
02:42PM 56.0240 -175.4063 66° East 514 592 33,000  Level FlightAware Transoceanic
02:42PM 56.0667 -175.1667 67° East 490 564 33,000  Level Anchorage Center
02:44PM 56.1167 -174.9333 69° East 490 564 33,000  Level Anchorage Center
02:45PM 56.1833 -174.7167 61° Northeast 480 552 33,000  Level Anchorage Center
02:46PM 56.2333 -174.5000 67° East 480 552 33,000  Level Anchorage Center
02:47PM 56.2667 -174.3167 72° East 480 552 33,000  Level Anchorage Center
02:48PM 56.3333 -174.0833 63° Northeast 480 552 33,000  Level Anchorage Center
02:49PM 56.3833 -173.8667 67° East 480 552 33,000  Level Anchorage Center
02:50PM 56.4333 -173.6333 69° East 490 564 33,000  Level Anchorage Center
02:51PM 56.4833 -173.4000 69° East 480 552 33,000  Level Anchorage Center
02:52PM 56.5333 -173.1833 67° East 480 552 33,000  Level Anchorage Center
02:53PM 56.5833 -172.9500 69° East 480 552 33,000  Level Anchorage Center
02:54PM 56.6333 -172.7333 67° East 470 541 33,000  Level Anchorage Center
02:55PM 56.6833 -172.5000 69° East 480 552 33,000  Level Anchorage Center
02:56PM 56.7333 -172.2667 69° East 470 541 33,000  Level Anchorage Center
02:57PM 56.7833 -172.0500 67° East 480 552 33,000  Level Anchorage Center
02:58PM 56.8289 -171.8310 69° East  Level FlightAware Approximate
02:58PM 56.8333 -171.8167 69° East 480 552 33,000  Level Anchorage Center
02:59PM 56.8833 -171.5833 68° East 480 552 33,000  Level Anchorage Center
03:00PM 56.9333 -171.3500 68° East 490 564 33,000  Level Anchorage Center
03:01PM 56.9667 -171.1167 75° East 480 552 33,000  Level Anchorage Center
03:02PM 57.0167 -170.8833 68° East 490 564 33,000  Level Anchorage Center
03:03PM 57.0667 -170.6333 70° East 490 564 33,000  Level Anchorage Center
03:04PM 57.1500 -170.2333 68° East 490 564 33,000  Level Anchorage Center
03:05PM 57.2167 -169.9500 68° East 491 565 33,000  Level Anchorage Center
03:06PM 57.2500 -169.7667 69° East 480 552 33,000  Level Anchorage Center
03:07PM 57.2833 -169.5333 75° East 490 564 33,000  Level Anchorage Center
03:08PM 57.3333 -169.2833 70° East 490 564 33,000  Level Anchorage Center
03:09PM 57.3833 -169.0500 68° East 480 552 33,000  Level Anchorage Center
03:10PM 57.4333 -168.8000 70° East 490 564 33,000  Level Anchorage Center
03:11PM 57.4611 -168.8003 69° East 490 564 33,000  Level FlightAware Transoceanic
03:11PM 57.4667 -168.5667 75° East 490 564 33,000  Level Anchorage Center
03:12PM 57.5220 -168.5209 69° East 491 565 33,000  Level FlightAware Transoceanic
03:12PM 57.5167 -168.3167 69° East 490 564 33,000  Level Anchorage Center
03:13PM 57.5667 -168.0833 68° East 490 564 33,000  Level Anchorage Center
03:14PM 57.6000 -167.8333 76° East 490 564 33,000  Level Anchorage Center
03:15PM 57.6500 -167.5833 69° East 490 564 33,000  Level Anchorage Center
03:16PM 57.7000 -167.3500 68° East 490 564 33,000  Level Anchorage Center
03:17PM 57.7333 -167.1000 76° East 490 564 33,000  Level Anchorage Center
03:18PM 57.7833 -166.8500 69° East 490 564 33,000  Level Anchorage Center
03:19PM 57.8167 -166.6167 75° East 480 552 33,000  Level Anchorage Center
03:20PM 57.8667 -166.3667 69° East 480 552 33,000  Level Anchorage Center
03:21PM 57.9000 -166.1333 75° East 480 552 33,000  Level Anchorage Center
03:22PM 57.9500 -165.8833 69° East 490 564 33,000  Level Anchorage Center
03:23PM 57.9833 -165.6500 75° East 480 552 33,000  Level Anchorage Center
03:24PM 58.0167 -165.4000 76° East 480 552 33,000  Level Anchorage Center
03:25PM 58.0667 -165.1500 69° East 480 552 33,000  Level Anchorage Center
03:26PM 58.1000 -164.9167 75° East 470 541 33,000  Level Anchorage Center
03:27PM 58.1500 -164.6833 68° East 470 541 33,000  Level Anchorage Center
03:28PM 58.2000 -164.4500 68° East 480 552 33,000  Level Anchorage Center
03:29PM 58.2500 -164.2000 69° East 470 541 33,000  Level Anchorage Center
03:30PM 58.3000 -163.9667 68° East 480 552 33,000  Level Anchorage Center
03:31PM 58.3500 -163.7333 68° East 470 541 33,000  Level Anchorage Center
03:32PM 58.3833 -163.5000 75° East 470 541 33,000  Level Anchorage Center
03:33PM 58.4333 -163.2500 69° East 480 552 33,000  Level Anchorage Center
03:34PM 58.4833 -163.0167 68° East 470 541 33,000  Level Anchorage Center
03:35PM 58.5167 -162.7833 75° East 480 552 33,000  Level Anchorage Center
03:36PM 58.5667 -162.5333 69° East 470 541 33,000  Level Anchorage Center
03:37PM 58.6167 -162.3000 68° East 490 564 33,000  Level Anchorage Center
03:38PM 58.6833 -162.0833 59° Northeast 470 541 33,000  Level Anchorage Center
03:39PM 58.7500 -161.8333 63° Northeast 460 529 33,000  Level Anchorage Center
03:40PM 58.8167 -161.6000 61° Northeast 470 541 33,000  Level Anchorage Center
03:41PM 58.8667 -161.3667 67° East 480 552 33,000  Level Anchorage Center
03:42PM 58.9333 -161.1333 61° Northeast 480 552 33,000  Level Anchorage Center
03:43PM 58.9833 -160.9000 67° East 480 552 33,000  Level Anchorage Center
03:44PM 59.0500 -160.6667 61° Northeast 470 541 33,000  Level Anchorage Center
03:45PM 59.1000 -160.4333 67° East 480 552 33,000  Level Anchorage Center
03:46PM 59.1500 -160.2000 67° East 470 541 33,000  Level Anchorage Center
03:47PM 59.2167 -159.9500 62° Northeast 480 552 33,000  Level Anchorage Center
03:48PM 59.2667 -159.7167 67° East 480 552 33,000  Level Anchorage Center
03:49PM 59.3333 -159.4833 61° Northeast 480 552 33,000  Level Anchorage Center
03:50PM 59.3833 -159.2333 68° East 470 541 33,000  Level Anchorage Center
03:51PM 59.4333 -159.0000 67° East 480 552 33,000  Level Anchorage Center
03:52PM 59.4833 -158.7500 68° East 470 541 33,000  Level Anchorage Center
03:53PM 59.5500 -158.5167 61° Northeast 470 541 33,000  Level Anchorage Center
03:54PM 59.6000 -158.2833 67° East 470 541 33,000  Level Anchorage Center
03:55PM 59.6500 -158.0500 67° East 470 541 33,000  Level Anchorage Center
03:56PM 59.7000 -157.8000 68° East 470 541 33,000  Level Anchorage Center
03:57PM 59.7500 -157.5500 68° East 470 541 33,000  Level Anchorage Center
03:58PM 59.8000 -157.3167 67° East 470 541 33,000  Level Anchorage Center
03:59PM 59.8500 -157.0667 68° East 470 541 33,000  Level Anchorage Center
04:00PM 59.9000 -156.8167 68° East 480 552 33,000  Level Anchorage Center
04:01PM 59.9500 -156.5833 67° East 470 541 33,000  Level Anchorage Center
04:02PM 60.0000 -156.3333 68° East 470 541 33,000  Level Anchorage Center
04:03PM 60.0500 -156.1000 67° East 460 529 33,000  Level Anchorage Center
04:04PM 60.0833 -155.8500 75° East 470 541 33,000  Level Anchorage Center
04:05PM 60.1333 -155.6000 68° East 460 529 33,000  Level Anchorage Center
04:11PM 60.4250 -154.1080 68° East 468 539 33,000  Level FlightAware
04:12PM 60.4520 -153.9580 70° East 469 540 33,000 -660 Level FlightAware
04:13PM 60.4860 -153.7610 71° East 472 543 32,100 -1,620 Descending FlightAware
04:13PM 60.5160 -153.5860 71° East 460 529 30,700 -1,980 Descending FlightAware
04:14PM 60.5460 -153.4120 71° East 454 522 29,300 -1,920 Descending FlightAware
04:15PM 60.5630 -153.3130 71° East 452 520 28,500 -1,980 Descending FlightAware
04:15PM 60.5870 -153.1670 71° East 450 518 27,300 -1,980 Descending FlightAware
04:16PM 60.6160 -152.9950 71° East 447 514 25,900 -1,980 Descending FlightAware
04:17PM 60.6410 -152.8440 71° East 446 513 24,700 -1,500 Descending FlightAware
04:17PM 60.6760 -152.6360 71° East 444 511 23,600 -2,040 Descending FlightAware
04:18PM 60.7070 -152.4390 72° East 439 505 21,200 -2,400 Descending FlightAware
04:19PM 60.7320 -152.2830 72° East 426 490 20,200 -1,860 Descending FlightAware
04:20PM 60.7540 -152.1490 71° East 419 482 18,900 -2,160 Descending FlightAware
04:20PM 60.7810 -151.9770 72° East 408 470 17,300 -1,980 Descending FlightAware
04:21PM 60.8050 -151.8230 72° East 396 456 16,000 -2,100 Descending FlightAware
04:22PM 60.8290 -151.6680 72° East 393 452 14,300 -2,700 Descending FlightAware
04:22PM 60.8520 -151.5180 72° East 399 459 12,200 -2,880 Descending FlightAware
04:23PM 60.8740 -151.3790 72° East 397 457 10,500 -1,440 Descending FlightAware
04:24PM 60.9050 -151.2300 67° East 352 405 10,200 -240 Descending FlightAware
04:24PM 60.9270 -151.1260 66° East 313 360 10,200 -120 Level FlightAware
04:25PM 60.9470 -151.0320 66° East 280 322 10,100 -540 Descending FlightAware
04:25PM 60.9580 -150.9800 66° East 278 320 9,700 -1,140 Descending FlightAware
04:26PM 60.9700 -150.9240 66° East 274 315 9,300 -1,020 Descending FlightAware
04:26PM 60.9750 -150.8960 70° East 274 315 9,100 -960 Descending FlightAware
04:27PM 60.9910 -150.8200 67° East 270 311 8,600 -1,020 Descending FlightAware
04:27PM 61.0070 -150.7470 66° East 267 307 8,100 -1,020 Descending FlightAware
04:27PM 61.0190 -150.6880 67° East 265 305 7,700 -1,020 Descending FlightAware
04:28PM 61.0330 -150.6200 67° East 261 300 7,200 -1,080 Descending FlightAware
04:28PM 61.0470 -150.5540 66° East 260 299 6,700 -1,080 Descending FlightAware
04:29PM 61.0580 -150.5020 66° East 259 298 6,300 -1,080 Descending FlightAware
04:29PM 61.0680 -150.4520 68° East 256 295 5,900 -960 Descending FlightAware
04:29PM 61.0750 -150.4150 69° East 255 293 5,700 -900 Descending FlightAware
04:30PM 61.0870 -150.3580 66° East 253 291 5,300 -600 Descending FlightAware
04:30PM 61.0990 -150.3000 67° East 250 288 5,200 -180 Descending FlightAware
04:31PM 61.1040 -150.2740 68° East 250 288 5,200  Level FlightAware
04:31PM 61.1180 -150.2110 65° Northeast 252 290 5,200  Level FlightAware
04:31PM 61.1340 -150.1820 41° Northeast 263 303 5,200  Level FlightAware
04:31PM 61.1450 -150.1770 12° North 268 308 5,200  Level FlightAware
04:32PM 61.1840 -150.1910 350° North 277 319 5,200  Level FlightAware
04:32PM 61.2040 -150.2000 348° North 276 318 5,200  Level FlightAware
04:33PM 61.2390 -150.2160 348° North 279 321 5,200  Level FlightAware
04:33PM 61.2540 -150.2220 349° North 279 321 5,200  Level FlightAware
04:33PM 61.2890 -150.2380 348° North 264 304 5,200  Level FlightAware
04:34PM 61.3230 -150.2540 347° North 236 272 5,200  Level FlightAware
04:34PM 61.3510 -150.2660 348° North 229 264 5,200 -240 Level FlightAware
04:35PM 61.3810 -150.2790 348° North 224 258 5,000 -780 Descending FlightAware
04:35PM 61.4010 -150.2860 350° North 222 255 4,600 -1,140 Descending FlightAware
04:36PM 61.4210 -150.2630 29° Northeast 201 231 4,200 -1,080 Descending FlightAware
04:36PM 61.4240 -150.2410 74° East 192 221 4,000 -960 Descending FlightAware
04:36PM 61.4140 -150.2000 117° Southeast 182 209 3,600 -720 Descending FlightAware
04:36PM 61.4040 -150.1820 139° Southeast 184 212 3,500 -480 Descending FlightAware
04:37PM 61.3890 -150.1540 138° Southeast 189 217 3,300 -480 Descending FlightAware
04:37PM 61.3790 -150.1340 136° Southeast 189 217 3,200 -180 Descending FlightAware
04:38PM 61.3630 -150.1070 141° Southeast 179 206 3,200  Level FlightAware
04:38PM 61.3540 -150.1020 165° South 176 203 3,200  Level FlightAware
04:38PM 61.3400 -150.0940 165° South 163 188 3,200 -180 Level FlightAware
04:38PM 61.3220 -150.0840 165° South 160 184 3,100 -720 Descending FlightAware
04:39PM 61.3020 -150.0720 164° South 160 184 2,600 -1,020 Descending FlightAware
04:39PM 61.2840 -150.0620 165° South 158 182 2,200 -840 Descending FlightAware
04:40PM 61.2760 -150.0570 163° South 155 178 2,100 -900 Descending FlightAware
04:40PM 61.2540 -150.0450 165° South 154 177 1,600 -1,020 Descending FlightAware
04:40PM 61.2390 -150.0370 166° South 144 166 1,200 -840 Descending FlightAware
04:41PM 61.2210 -150.0270 165° South 142 163 900 -780 Descending FlightAware
04:41PM 61.2040 -150.0170 164° South 147 169 500 -960 Descending FlightAware
04:42PM 61.1960 -150.0130 166° South 147 169 300 -1,020 Descending FlightAware
04:42PM 61.1800 -150.0040 165° South 37 43 -480 Descending FlightAware
04:43PM 61.1780 -150.0000 136° Southeast 19 22  Level FlightAware
04:43PM 61.1790 -150.0000 360° North 32 37  Level FlightAware
04:44PM 61.1820 -150.0010 351° North 18 21  Level FlightAware
04:44PM 61.1800 -150.0000 166° South 147 169  Level FlightAware
04:45PM 61.1650 -149.9920 166° South 147 169  Level FlightAware
04:45PM 61.1880 -150.0040 346° North 16 18  Level FlightAware
04:45PM 61.1900 -150.0050 346° North 16 18  Level FlightAware
04:46PM 61.1910 -150.0060 334° Northwest 33 38  Level FlightAware